• Join FlightAware (Why Join?)
  • Login
  • US Flag 
06:21AM EST


 

Airport Tracker/Info


-or-


 

Live Flight TrackerFlight Track Log ✈ N449ND ✈ 29-Mar-2014 ✈ KFPR - KFPR

Flight Track Log - Related Links

Times and Time Zones

All times are in EDT time to prevent confusion due to time zone crossing. See the N449ND flight status page for this flight to view local times or setup timezone preferences in your user account.

Time Position Orientation Groundspeed Altitude Reporting Facility
EDT Latitude Longitude Course Direction KTS MPH feet Rate Location/Type
12:58PM 27.4753 -80.3539 170° South 91 105 800  Level Miami Center
12:59PM 27.4586 -80.3511 172° South 66 76 1,300 480 Climbing Miami Center
01:00PM 27.4400 -80.3483 172° South 66 76 1,800 420 Climbing Miami Center
01:01PM 27.4233 -80.3500 185° South 66 76 2,200 480 Climbing Miami Center
01:02PM 27.4975 -80.3726 170° South  Level Estimated
01:02PM 27.4186 -80.3708 256° West 59 68 2,800  Level Miami Center
01:03PM 27.4222 -80.3967 279° West 73 84 3,000 120 Climbing Miami Center
01:04PM 27.4256 -80.4272 277° West 88 101 3,100  Climbing Miami Center
01:05PM 27.4269 -80.4556 273° West 93 107 3,100  Level Miami Center
01:06PM 27.4303 -80.4858 277° West 98 113 3,100  Level Miami Center
01:07PM 27.4336 -80.5164 277° West 103 119 3,100  Level Miami Center
01:08PM 27.4519 -80.5406 311° West 103 119 3,100 -60 Level Miami Center
01:09PM 27.4872 -80.5461 352° North 102 117 3,000  Descending Miami Center
01:10PM 27.5186 -80.5425 North 124 143 3,100  Climbing Miami Center
01:12PM 27.5939 -80.5450 34° Northeast 124 143 3,100  Level Miami Center
01:13PM 27.6153 -80.5153 51° Northeast 107 123 3,100  Level Miami Center
01:14PM 27.6308 -80.4828 62° Northeast 108 124 3,100  Level Miami Center
01:15PM 27.6606 -80.4650 28° Northeast 118 136 3,100  Level Miami Center
01:16PM 27.6986 -80.4406 30° Northeast 129 148 3,100  Level Miami Center
01:17PM 27.7283 -80.4181 34° Northeast 134 154 3,100  Level Miami Center
01:18PM 27.7603 -80.3978 29° Northeast 129 148 3,100  Level Miami Center
01:19PM 27.7878 -80.3775 33° Northeast 129 148 3,100  Level Miami Center
01:20PM 27.8197 -80.3550 32° Northeast 123 142 3,100  Level Miami Center
01:21PM 27.8456 -80.3231 48° Northeast 118 136 3,100  Level Miami Center
01:22PM 27.8547 -80.2858 74° East 112 129 3,100 -120 Level Miami Center
01:24PM 27.8472 -80.2572 107° East 111 128 2,900 -420 Descending Miami Center
01:25PM 27.8247 -80.2356 140° Southeast 98 113 2,300 -420 Descending Miami Center
01:26PM 27.8000 -80.2206 152° Southeast 98 113 2,100 -120 Descending Miami Center
01:27PM 27.7753 -80.2106 160° South 92 106 2,100  Level Miami Center
01:28PM 27.7544 -80.2006 157° South 92 106 2,100  Level Miami Center
01:29PM 27.7317 -80.1953 168° South 87 100 2,100  Level Miami Center
01:30PM 27.7044 -80.1944 178° South 87 100 2,100  Level Miami Center
01:31PM 27.6817 -80.1914 173° South 82 94 2,100  Level Miami Center
01:32PM 27.6567 -80.1906 178° South 82 94 2,100  Level Miami Center
01:33PM 27.6356 -80.1947 190° South 82 94 2,100  Level Miami Center
01:34PM 27.6083 -80.2033 196° South 88 101 2,100  Level Miami Center
01:35PM 27.5956 -80.2194 228° Southwest 88 101 2,100  Level Miami Center
01:36PM 27.5989 -80.2522 277° West 87 100 2,100 -120 Level Miami Center
01:37PM 27.6044 -80.2806 282° West 102 117 1,900 -120 Descending Miami Center
01:38PM 27.6142 -80.3089 291° West 107 123 1,900 -120 Level Miami Center
01:39PM 27.6239 -80.3397 290° West 101 116 1,700 -360 Descending Miami Center
01:40PM 27.6336 -80.3658 293° West 96 110 1,200 -600 Descending Miami Center
01:41PM 27.6414 -80.3919 289° West 89 102 600 -240 Descending Miami Center
01:42PM 27.6492 -80.4131 293° West 89 102 800 420 Climbing Miami Center
01:43PM 27.6547 -80.4508 279° West 84 97 1,700 540 Climbing Miami Center
01:44PM 27.6561 -80.4697 275° West 84 97 2,200 480 Climbing Miami Center
01:45PM 27.6578 -80.4931 275° West 84 97 2,700 420 Climbing Miami Center
01:46PM 27.6611 -80.5189 278° West 84 97 3,100 180 Climbing Miami Center
01:47PM 27.6647 -80.5450 279° West 84 97 3,100  Level Miami Center
01:48PM 27.6703 -80.5733 282° West 84 97 3,100  Level Miami Center
01:49PM 27.6656 -80.5942 256° West 84 97 3,100  Level Miami Center
01:50PM 27.6483 -80.6125 223° Southwest 78 90 3,100  Level Miami Center
01:51PM 27.6294 -80.6236 208° Southwest 84 97 3,100  Level Miami Center
01:52PM 27.6122 -80.6392 219° Southwest 84 97 3,100  Level Miami Center
01:53PM 27.5936 -80.6269 150° Southeast 67 77 3,100  Level Miami Center
01:54PM 27.6153 -80.5994 48° Northeast 53 61 3,100 -120 Level Miami Center
01:55PM 27.6353 -80.5581 61° Northeast 115 132 2,900 -300 Descending Miami Center
01:56PM 27.6361 -80.5206 89° East 122 140 2,600 -420 Descending Miami Center
01:57PM 27.6117 -80.5011 145° Southeast 105 121 2,100 -420 Descending Miami Center
01:58PM 27.5914 -80.4792 136° Southeast 111 128 1,800 -240 Descending Miami Center
01:59PM 27.5708 -80.4575 137° Southeast 105 121 1,700 -60 Descending Miami Center
02:00PM 27.5506 -80.4336 134° Southeast 105 121 1,700 -120 Level Miami Center
02:01PM 27.5322 -80.4142 137° Southeast 105 121 1,500 -540 Descending Miami Center
02:02PM 27.5161 -80.3950 133° Southeast 94 108 700 -600 Descending Miami Center
02:03PM 27.5019 -80.3806 138° Southeast 89 102 400 180 Descending Miami Center
02:04PM 27.4942 -80.3475 105° East 81 93 1,100 540 Climbing Miami Center
02:05PM 27.4992 -80.3172 79° East 87 100 1,600 480 Climbing Miami Center
02:06PM 27.5019 -80.2892 84° East 87 100 2,100 480 Climbing Miami Center
02:07PM 27.5192 -80.2711 43° Northeast 81 93 2,600 420 Climbing Miami Center
02:08PM 27.5525 -80.2719 359° North 96 110 3,000 180 Climbing Miami Center
02:09PM 27.5858 -80.2706 North 117 135 3,000  Level Miami Center
02:10PM 27.6169 -80.2764 351° North 122 140 3,000  Level Miami Center
02:11PM 27.6353 -80.2956 317° Northwest 111 128 3,100  Climbing Miami Center
02:12PM 27.6347 -80.3261 269° West 95 109 3,000 -60 Descending Miami Center
02:13PM 27.6381 -80.3589 277° West 95 109 3,000  Level Miami Center
02:14PM 27.6436 -80.3872 282° West 95 109 3,000  Level Miami Center
02:15PM 27.6492 -80.4156 282° West 89 102 3,000  Level Miami Center
02:16PM 27.6528 -80.4392 280° West 89 102 3,000  Level Miami Center
02:17PM 27.6561 -80.4697 277° West 89 102 3,000  Level Miami Center
02:18PM 27.6536 -80.4953 264° West 79 91 3,000  Level Miami Center
02:19PM 27.6325 -80.4969 184° South 67 77 3,000  Level Miami Center
02:20PM 27.6097 -80.4964 179° South 81 93 3,000  Level Miami Center
02:21PM 27.5906 -80.5050 202° Southwest 80 92 3,000  Level Miami Center
02:22PM 27.5756 -80.5233 227° Southwest 80 92 3,000  Level Miami Center
02:23PM 27.5564 -80.5414 220° Southwest 86 99 3,000 -120 Level Miami Center
02:24PM 27.5353 -80.5478 195° South 86 99 2,800 -360 Descending Miami Center
02:25PM 27.5125 -80.5353 154° Southeast 83 96 2,300 -420 Descending Miami Center
02:26PM 27.4983 -80.5161 130° Southeast 88 101 2,000 -300 Descending Miami Center
02:27PM 27.4994 -80.4764 88° East 104 120 1,700 -360 Descending Miami Center
02:28PM 27.4983 -80.4436 92° East 109 125 1,300 -480 Descending Miami Center
02:29PM 27.4989 -80.4131 89° East 101 116 800 -540 Descending Miami Center
02:31PM 27.4864 -80.3759 111° Southeast  Level FlightAware Approximate